aviador You're here:

KJXN Decoded Metar

JACKSON/REYNOLDS in MI, USA
Report Time2017-08-19 13:56:00
UTC Time2017-08-19 14:54:19
Flight Rules vfr VFR
Wind260° at 09 kt
W.Decomp.*RWY 24: 8.2 kt HW 3.8 kt RCW
RWY 32: 5.2 kt HW 7.4 kt LCW
W.Rank260° ranks 5
Current wind is above 260° avg. (8.1)
Visibility9999 m
Phenomena:N/A
Clouds:Few 015 Hf
Expected CloudBase > 1,600 ft AGL from Temp-Dew spread
CeilingNone
Temp21°C (ISA +8)
Dew Point17°C (78% RH)
AAT20.1°C
QNH1014 hPa
Density Alt2,159 ft
Elevation1,001 ft
Report Wrong Elevation
Raw Report
KJXN 191356Z 26009KT 10SM FEW015 21/17 A2993 RMK AO2 SLP129
T02060167 $=

Extra information for KJXN:More info

Metar Taf Metar & Taf Last 4 Metars F.Rules Stats Wind Profile Meteogram Temp Stats Airport Information Weather charts Add Link Nearby VenuesMetar ALERT Operation Metar Decoded Social comments

AIRNAV info for KJXN